Time;durP1;ratioP1;P1;durP2;ratioP2;P2;SDS_P1;SDS_P2;PMS_P1;PMS_P2;Temp;Humidity;BMP_temperature;BMP_pressure;BME280_temperature;BME280_humidity;BME280_pressure;Samples;Min_cycle;Max_cycle;Signal;HPM_P1;HPM_P2
2022/08/24 00:00:48;;;;;;;3.70;2.50;;;20.00;99.90;;;;;;4956410;28;20448;-76
2022/08/24 00:03:13;;;;;;;4.67;2.33;;;20.10;99.90;;;;;;4955585;29;20181;-77
2022/08/24 00:05:39;;;;;;;4.13;2.30;;;20.10;99.90;;;;;;4971632;28;20189;-77
2022/08/24 00:08:05;;;;;;;5.20;2.40;;;20.00;99.90;;;;;;4956948;28;20272;-77
2022/08/24 00:10:30;;;;;;;4.43;2.40;;;20.00;99.90;;;;;;4956291;28;20473;-77
2022/08/24 00:12:57;;;;;;;3.83;2.10;;;19.80;99.90;;;;;;4956773;29;20680;-77
2022/08/24 00:15:23;;;;;;;8.43;2.40;;;19.80;99.90;;;;;;4956529;28;20193;-78
2022/08/24 00:17:49;;;;;;;5.40;1.67;;;19.80;99.90;;;;;;4956540;28;20547;-77
2022/08/24 00:20:16;;;;;;;5.50;2.30;;;19.70;99.90;;;;;;4956138;28;20449;-77
2022/08/24 00:22:42;;;;;;;6.23;2.73;;;19.70;99.90;;;;;;4956398;28;20496;-77
2022/08/24 00:25:10;;;;;;;3.97;3.00;;;19.70;99.90;;;;;;4956570;28;20417;-77
2022/08/24 00:27:37;;;;;;;4.43;2.30;;;19.60;99.90;;;;;;4971228;28;20501;-77
2022/08/24 00:30:09;;;;;;;5.60;2.37;;;19.60;99.90;;;;;;4954770;28;20500;-77
2022/08/24 00:32:36;;;;;;;2.13;1.93;;;19.60;99.90;;;;;;4971186;28;20484;-77
2022/08/24 00:35:04;;;;;;;4.20;2.47;;;19.20;99.90;;;;;;4956348;28;20897;-77
2022/08/24 00:37:30;;;;;;;4.53;2.57;;;19.20;99.90;;;;;;4970180;28;20807;-77
2022/08/24 00:39:56;;;;;;;3.10;2.63;;;19.20;99.90;;;;;;4955578;28;20436;-77
2022/08/24 00:42:24;;;;;;;6.20;2.67;;;19.20;99.90;;;;;;4956094;28;20430;-77
2022/08/24 00:44:50;;;;;;;2.30;2.07;;;19.20;99.90;;;;;;4955951;29;20420;-77
2022/08/24 00:47:27;;;;;;;5.40;2.73;;;19.20;99.90;;;;;;4955846;28;20517;-78
2022/08/24 00:49:59;;;;;;;2.97;2.10;;;19.30;99.90;;;;;;4955608;28;20816;-78
2022/08/24 00:52:49;;;;;;;2.67;2.27;;;19.30;99.90;;;;;;4956034;28;20417;-77
2022/08/24 00:55:27;;;;;;;5.30;2.50;;;19.20;99.90;;;;;;4955937;28;20420;-77
2022/08/24 00:57:59;;;;;;;2.80;2.20;;;19.20;99.90;;;;;;4970599;28;20443;-77
2022/08/24 01:00:31;;;;;;;6.53;2.27;;;19.30;99.90;;;;;;4954113;28;20476;-77
2022/08/24 01:03:03;;;;;;;3.90;2.60;;;19.20;99.90;;;;;;4955853;28;20472;-77
2022/08/24 01:05:30;;;;;;;4.27;2.53;;;19.20;99.90;;;;;;4955590;28;20433;-77
2022/08/24 01:07:57;;;;;;;3.07;2.53;;;19.20;99.90;;;;;;4955616;28;20413;-77
2022/08/24 01:10:28;;;;;;;3.53;2.40;;;19.20;99.90;;;;;;4970116;28;20449;-77
2022/08/24 01:12:57;;;;;;;4.00;2.33;;;19.10;99.90;;;;;;4955820;28;20432;-77
2022/08/24 01:15:23;;;;;;;4.40;2.20;;;19.00;99.90;;;;;;4970461;28;20436;-77
2022/08/24 01:20:35;;;;;;;4.50;2.77;;;19.00;99.90;;;;;;4955940;28;20573;-77
2022/08/24 01:23:32;;;;;;;4.73;2.47;;;18.90;99.90;;;;;;4954198;29;20862;-76
2022/08/24 01:25:59;;;;;;;3.97;2.30;;;18.90;99.90;;;;;;4922476;29;20575;-77
2022/08/24 01:28:26;;;;;;;7.37;2.30;;;18.90;99.90;;;;;;4970337;28;20426;-77
2022/08/24 01:30:51;;;;;;;13.23;3.03;;;18.90;99.90;;;;;;4955090;28;20441;-77
2022/08/24 01:33:27;;;;;;;5.60;2.10;;;18.90;99.90;;;;;;4955399;29;20432;-77
2022/08/24 01:36:21;;;;;;;4.50;2.27;;;18.80;99.90;;;;;;4955235;28;20219;-77
2022/08/24 01:38:48;;;;;;;7.07;2.23;;;18.80;99.90;;;;;;4955271;29;20557;-77
2022/08/24 01:41:14;;;;;;;3.73;2.43;;;18.80;99.90;;;;;;4953576;28;20786;-77
2022/08/24 01:43:42;;;;;;;6.30;2.20;;;18.80;99.90;;;;;;4955095;28;20453;-77
2022/08/24 01:46:09;;;;;;;3.50;1.97;;;18.70;99.90;;;;;;4954916;29;20441;-77
2022/08/24 01:48:35;;;;;;;2.23;2.03;;;18.70;99.90;;;;;;4969824;28;20429;-77
2022/08/24 01:51:01;;;;;;;3.27;2.60;;;18.60;99.90;;;;;;4954577;28;20436;-77
2022/08/24 01:53:27;;;;;;;16.93;3.40;;;18.60;99.90;;;;;;4969860;28;20512;-77
2022/08/24 01:55:52;;;;;;;5.23;2.43;;;18.60;99.90;;;;;;4969924;28;20534;-77
2022/08/24 01:58:18;;;;;;;4.80;2.30;;;18.60;99.90;;;;;;4969765;28;20479;-77
2022/08/24 02:00:44;;;;;;;6.57;2.93;;;18.40;99.90;;;;;;4969462;28;20222;-77
2022/08/24 02:03:10;;;;;;;3.93;2.40;;;18.40;99.90;;;;;;4955302;28;20413;-77
2022/08/24 02:05:36;;;;;;;7.40;2.90;;;18.30;99.90;;;;;;4955014;29;20423;-77
2022/08/24 02:08:02;;;;;;;3.60;2.73;;;18.30;99.90;;;;;;4969758;28;20649;-77
2022/08/24 02:10:29;;;;;;;6.13;2.60;;;18.30;99.90;;;;;;4954772;28;20260;-77
2022/08/24 02:12:56;;;;;;;4.00;2.40;;;18.30;99.90;;;;;;4953662;29;20451;-78
2022/08/24 02:15:28;;;;;;;3.07;2.20;;;18.30;99.90;;;;;;4954991;28;20392;-77
2022/08/24 02:17:54;;;;;;;4.13;2.40;;;18.30;99.90;;;;;;4954808;28;20486;-78
2022/08/24 02:20:21;;;;;;;4.33;2.53;;;18.20;99.90;;;;;;4954483;28;20440;-77
2022/08/24 02:22:47;;;;;;;2.90;2.17;;;18.20;99.90;;;;;;4954990;28;20409;-77
2022/08/24 02:25:14;;;;;;;6.37;2.70;;;18.20;99.90;;;;;;4954836;28;20447;-77
2022/08/24 02:27:40;;;;;;;5.47;3.03;;;18.20;99.90;;;;;;4953553;29;20425;-77
2022/08/24 02:30:06;;;;;;;7.60;2.40;;;18.20;99.90;;;;;;4952998;28;20507;-77
2022/08/24 02:32:32;;;;;;;4.43;2.23;;;18.10;99.90;;;;;;4969556;28;20215;-77
2022/08/24 02:34:58;;;;;;;6.80;2.37;;;18.10;99.90;;;;;;4953545;29;20444;-77
2022/08/24 02:37:23;;;;;;;3.13;2.57;;;18.10;99.90;;;;;;4954716;28;20209;-77
2022/08/24 02:39:49;;;;;;;5.63;2.37;;;18.10;99.90;;;;;;4969104;28;20189;-77
2022/08/24 02:42:15;;;;;;;5.80;2.30;;;18.10;99.90;;;;;;4953315;29;20196;-77
2022/08/24 02:44:40;;;;;;;6.97;2.40;;;18.00;99.90;;;;;;4969325;28;20594;-78
2022/08/24 02:47:06;;;;;;;4.80;2.83;;;18.00;99.90;;;;;;4953421;29;20529;-77
2022/08/24 02:49:32;;;;;;;4.07;2.40;;;18.00;99.90;;;;;;4954597;29;20181;-77
2022/08/24 02:51:57;;;;;;;4.47;2.57;;;17.90;99.90;;;;;;4969203;28;20678;-77
2022/08/24 02:54:23;;;;;;;2.83;2.50;;;17.90;99.90;;;;;;4954790;29;20174;-77
2022/08/24 02:56:49;;;;;;;10.83;2.60;;;17.90;99.90;;;;;;4969567;28;20495;-77
2022/08/24 02:59:15;;;;;;;3.33;2.53;;;17.90;99.90;;;;;;4954496;29;20213;-77
2022/08/24 03:01:41;;;;;;;3.70;2.43;;;17.90;99.90;;;;;;4970475;28;20701;-77
2022/08/24 03:04:07;;;;;;;4.60;2.47;;;17.90;99.90;;;;;;4957933;28;20445;-77
2022/08/24 03:06:32;;;;;;;6.60;2.50;;;17.90;99.90;;;;;;4957942;28;20185;-77
2022/08/24 03:08:58;;;;;;;2.40;2.20;;;17.90;99.90;;;;;;4957812;29;20623;-77
2022/08/24 03:11:24;;;;;;;6.20;2.40;;;17.80;99.90;;;;;;4956268;28;20216;-77
2022/08/24 03:13:50;;;;;;;3.73;3.00;;;17.80;99.90;;;;;;4957742;29;20596;-77
2022/08/24 03:16:16;;;;;;;6.23;2.77;;;17.70;99.90;;;;;;4972497;28;20425;-77
2022/08/24 03:18:42;;;;;;;5.40;2.80;;;17.70;99.90;;;;;;4957718;28;20212;-76
2022/08/24 03:21:09;;;;;;;3.67;3.13;;;17.70;99.90;;;;;;4971955;28;20496;-77
2022/08/24 03:23:35;;;;;;;3.60;2.60;;;17.60;99.90;;;;;;4957805;28;20505;-76
2022/08/24 03:26:01;;;;;;;5.70;3.20;;;17.60;99.90;;;;;;4957591;28;20453;-77
2022/08/24 03:28:28;;;;;;;4.57;2.80;;;17.60;99.90;;;;;;4957384;28;20429;-77
2022/08/24 03:30:53;;;;;;;3.90;2.50;;;17.50;99.90;;;;;;4955892;28;20584;-77
2022/08/24 03:33:19;;;;;;;4.50;2.50;;;17.50;99.90;;;;;;4957536;28;20504;-76
2022/08/24 03:35:45;;;;;;;3.67;3.00;;;17.50;99.90;;;;;;4957450;28;20186;-77
2022/08/24 03:38:12;;;;;;;6.10;2.40;;;17.50;99.90;;;;;;4957302;28;20456;-76
2022/08/24 03:40:39;;;;;;;6.57;3.10;;;17.50;99.90;;;;;;4956691;28;20526;-77
2022/08/24 03:43:05;;;;;;;6.63;3.00;;;17.40;99.90;;;;;;4957137;28;20421;-77
2022/08/24 03:45:30;;;;;;;4.40;3.00;;;17.40;99.90;;;;;;4956960;28;20801;-77
2022/08/24 03:47:56;;;;;;;6.27;2.90;;;17.40;99.90;;;;;;4956153;29;20865;-76
2022/08/24 03:50:23;;;;;;;4.30;2.77;;;17.40;99.90;;;;;;4956614;28;20224;-77
2022/08/24 03:52:50;;;;;;;4.77;2.83;;;17.30;99.90;;;;;;4956750;28;20781;-77
2022/08/24 03:55:16;;;;;;;5.50;2.67;;;17.30;99.90;;;;;;4957170;28;20396;-77
2022/08/24 03:57:42;;;;;;;6.97;3.00;;;17.30;99.90;;;;;;4971878;28;20472;-76
2022/08/24 04:00:10;;;;;;;5.10;3.73;;;17.30;99.90;;;;;;4956662;28;21004;-77
2022/08/24 04:02:36;;;;;;;2.67;2.27;;;17.30;99.90;;;;;;4971599;28;20185;-77
2022/08/24 04:05:03;;;;;;;7.53;3.17;;;17.20;99.90;;;;;;4956670;28;20429;-77
2022/08/24 04:07:30;;;;;;;6.30;3.27;;;17.30;99.90;;;;;;4956569;28;20181;-77
2022/08/24 04:09:56;;;;;;;6.63;3.63;;;17.30;99.90;;;;;;4954997;28;20407;-77
2022/08/24 04:12:22;;;;;;;4.40;2.60;;;17.40;99.90;;;;;;4971744;28;20520;-77
2022/08/24 04:14:50;;;;;;;5.00;3.60;;;17.30;99.90;;;;;;4956753;28;20185;-77
2022/08/24 04:17:16;;;;;;;3.67;2.90;;;17.20;99.90;;;;;;4955284;29;20444;-77
2022/08/24 04:19:56;;;;;;;7.33;3.00;;;17.20;99.90;;;;;;4970979;28;20412;-77
2022/08/24 04:22:23;;;;;;;5.30;3.00;;;17.10;99.90;;;;;;4971425;28;20189;-77
2022/08/24 04:24:51;;;;;;;5.37;2.90;;;17.10;99.90;;;;;;4956598;28;20413;-77
2022/08/24 04:27:17;;;;;;;4.03;2.80;;;17.10;99.90;;;;;;4971004;28;20417;-77
2022/08/24 04:29:43;;;;;;;3.87;2.50;;;17.10;99.90;;;;;;4954700;29;20452;-77
2022/08/24 04:32:09;;;;;;;5.60;2.80;;;17.10;99.90;;;;;;4971332;28;20441;-76
2022/08/24 04:34:35;;;;;;;4.43;2.80;;;17.10;99.90;;;;;;4956367;29;20417;-77
2022/08/24 04:37:01;;;;;;;4.53;2.70;;;17.10;99.90;;;;;;4956094;28;20268;-77
2022/08/24 04:39:26;;;;;;;3.63;2.60;;;17.10;99.90;;;;;;4955945;29;20464;-77
2022/08/24 04:41:52;;;;;;;6.17;2.60;;;17.10;99.90;;;;;;4970716;28;20201;-76
2022/08/24 04:44:18;;;;;;;7.17;3.47;;;17.10;99.90;;;;;;4954905;29;20591;-77
2022/08/24 04:46:43;;;;;;;7.63;3.57;;;17.10;99.90;;;;;;4955941;29;20685;-77
2022/08/24 04:49:09;;;;;;;5.10;3.33;;;17.00;99.90;;;;;;4970631;28;20194;-77
2022/08/24 04:51:35;;;;;;;5.80;3.10;;;17.10;99.90;;;;;;4955736;28;20218;-77
2022/08/24 04:54:01;;;;;;;7.90;3.10;;;17.10;99.90;;;;;;4956072;28;20541;-77
2022/08/24 04:56:26;;;;;;;6.13;4.00;;;17.20;99.90;;;;;;4954666;29;20411;-76
2022/08/24 04:58:53;;;;;;;4.33;2.70;;;17.20;99.90;;;;;;4954855;29;20276;-76
2022/08/24 05:01:24;;;;;;;6.67;3.37;;;17.20;99.90;;;;;;4954914;28;20689;-77
2022/08/24 05:03:52;;;;;;;9.37;3.20;;;17.10;99.90;;;;;;4955714;29;20814;-76
2022/08/24 05:06:21;;;;;;;5.87;2.93;;;17.20;99.90;;;;;;4955833;29;20425;-77
2022/08/24 05:08:47;;;;;;;4.13;3.33;;;17.10;99.90;;;;;;4954669;29;20464;-77
2022/08/24 05:11:16;;;;;;;6.60;3.07;;;16.80;99.90;;;;;;4955162;29;20999;-77
2022/08/24 05:13:41;;;;;;;5.60;3.13;;;16.80;99.90;;;;;;4954271;29;20856;-77
2022/08/24 05:16:09;;;;;;;5.03;3.10;;;16.90;99.90;;;;;;4955625;29;20483;-76
2022/08/24 05:18:35;;;;;;;5.20;3.50;;;16.90;99.90;;;;;;4955380;29;20300;-76
2022/08/24 05:21:01;;;;;;;6.70;3.37;;;17.00;99.90;;;;;;4937906;29;20523;-76
2022/08/24 05:23:28;;;;;;;6.67;3.00;;;17.10;99.90;;;;;;4953986;28;20220;-76
2022/08/24 05:26:07;;;;;;;6.30;3.67;;;17.10;99.90;;;;;;4955358;29;20425;-76
2022/08/24 05:28:34;;;;;;;3.83;2.83;;;17.20;99.90;;;;;;4962856;29;20412;-75
2022/08/24 05:31:17;;;;;;;5.50;3.40;;;17.20;99.90;;;;;;4955215;29;20445;-76
2022/08/24 05:33:43;;;;;;;6.10;2.80;;;17.30;99.90;;;;;;4953964;29;20472;-76
2022/08/24 05:36:38;;;;;;;4.00;2.67;;;17.40;99.90;;;;;;4953954;29;20408;-76
2022/08/24 05:39:07;;;;;;;6.50;2.93;;;17.50;99.90;;;;;;4937850;29;20279;-76
2022/08/24 05:41:33;;;;;;;6.67;3.20;;;17.50;99.90;;;;;;4954593;29;20416;-76
2022/08/24 05:44:00;;;;;;;4.13;3.07;;;17.60;99.90;;;;;;4955265;29;20423;-77
2022/08/24 05:46:26;;;;;;;4.53;3.10;;;17.60;99.90;;;;;;4939648;29;20444;-77
2022/08/24 05:48:53;;;;;;;6.37;3.73;;;17.70;99.90;;;;;;4953995;29;20433;-76
2022/08/24 05:51:19;;;;;;;6.57;3.63;;;17.80;99.90;;;;;;4954697;29;20410;-77
2022/08/24 05:53:45;;;;;;;4.13;2.53;;;17.80;99.90;;;;;;4954146;29;20460;-76
2022/08/24 05:56:13;;;;;;;7.00;3.57;;;17.80;99.90;;;;;;4954159;29;20823;-76
2022/08/24 05:58:39;;;;;;;5.13;3.40;;;17.80;99.90;;;;;;4955448;29;20229;-76
2022/08/24 06:01:11;;;;;;;9.40;3.47;;;17.90;99.90;;;;;;4953267;29;20452;-76
2022/08/24 06:03:38;;;;;;;6.60;3.60;;;18.10;99.90;;;;;;4954878;29;20475;-76
2022/08/24 06:06:06;;;;;;;10.23;4.23;;;18.10;99.90;;;;;;4953607;29;20413;-76
2022/08/24 06:08:34;;;;;;;9.67;3.90;;;18.20;99.90;;;;;;4938214;29;20947;-76
2022/08/24 06:11:01;;;;;;;6.87;3.77;;;18.20;99.90;;;;;;4954697;29;20561;-76
2022/08/24 06:13:27;;;;;;;6.07;3.37;;;18.30;99.90;;;;;;4954547;29;20424;-76
2022/08/24 06:16:13;;;;;;;4.67;3.50;;;18.40;99.90;;;;;;4954888;28;20941;-77
2022/08/24 06:18:39;;;;;;;4.67;3.37;;;18.60;99.90;;;;;;4954871;28;20452;-76
2022/08/24 06:21:10;;;;;;;9.97;4.80;;;18.80;99.90;;;;;;4954632;28;20456;-75
2022/08/24 06:23:37;;;;;;;7.40;3.73;;;18.90;99.90;;;;;;4955477;28;20779;-76
2022/08/24 06:28:49;;;;;;;7.50;3.27;;;19.10;99.90;;;;;;4954821;29;20515;-76
2022/08/24 06:31:15;;;;;;;3.77;2.70;;;19.20;99.90;;;;;;4953233;28;20481;-76
2022/08/24 06:33:40;;;;;;;7.43;3.47;;;19.30;99.90;;;;;;4954619;28;20203;-76
2022/08/24 06:36:06;;;;;;;9.03;3.93;;;19.40;99.90;;;;;;4954072;28;20436;-76
2022/08/24 06:38:32;;;;;;;4.10;3.43;;;19.40;99.90;;;;;;4957060;29;20312;-76
2022/08/24 06:40:58;;;;;;;8.63;3.43;;;19.50;99.90;;;;;;4957940;28;20523;-76
2022/08/24 06:43:24;;;;;;;8.17;3.67;;;19.70;99.90;;;;;;4957021;29;20181;-76
2022/08/24 06:45:51;;;;;;;4.37;3.20;;;19.70;99.90;;;;;;4956626;29;20258;-76
2022/08/24 06:48:17;;;;;;;6.60;4.20;;;19.80;99.90;;;;;;4958232;28;20180;-76
2022/08/24 06:50:43;;;;;;;11.20;4.80;;;19.90;99.90;;;;;;4956611;28;20444;-76
2022/08/24 06:53:13;;;;;;;10.43;4.90;;;20.00;99.90;;;;;;4956930;29;20805;-76
2022/08/24 06:55:44;;;;;;;8.50;4.63;;;20.20;99.90;;;;;;4958189;28;20273;-76
2022/08/24 06:58:09;;;;;;;11.70;6.43;;;20.40;99.90;;;;;;4957970;28;20476;-76
2022/08/24 07:00:35;;;;;;;16.60;5.97;;;20.50;99.90;;;;;;4956252;28;20503;-76
2022/08/24 07:03:01;;;;;;;18.77;7.17;;;20.60;99.90;;;;;;4972825;28;20642;-76
2022/08/24 07:05:26;;;;;;;15.77;6.60;;;20.80;99.90;;;;;;4956814;29;20185;-77
2022/08/24 07:07:52;;;;;;;12.63;6.40;;;20.90;99.90;;;;;;4972754;28;20713;-76
2022/08/24 07:10:18;;;;;;;14.87;7.20;;;21.10;99.90;;;;;;4957477;28;20251;-76
2022/08/24 07:12:43;;;;;;;14.77;6.00;;;21.20;99.90;;;;;;4972904;28;20791;-77
2022/08/24 07:15:09;;;;;;;19.13;7.27;;;21.20;99.90;;;;;;4972732;28;20646;-77
2022/08/24 07:17:35;;;;;;;17.10;7.00;;;21.30;99.90;;;;;;4957736;28;20211;-77
2022/08/24 07:20:01;;;;;;;20.30;7.50;;;21.50;99.90;;;;;;4972237;28;20433;-76
2022/08/24 07:22:27;;;;;;;22.80;7.17;;;21.70;99.90;;;;;;4972457;28;20429;-76
2022/08/24 07:24:53;;;;;;;30.03;7.00;;;21.80;99.90;;;;;;4956391;29;20425;-76
2022/08/24 07:27:18;;;;;;;16.40;6.70;;;22.00;99.90;;;;;;4956307;29;20642;-77
2022/08/24 07:29:44;;;;;;;21.80;7.13;;;22.00;99.90;;;;;;4971988;28;20445;-77
2022/08/24 07:32:11;;;;;;;13.90;5.63;;;22.20;99.90;;;;;;4971977;28;20247;-76
2022/08/24 07:34:36;;;;;;;14.63;5.33;;;22.50;99.90;;;;;;4972264;28;20422;-77
2022/08/24 07:37:04;;;;;;;18.30;6.50;;;22.60;99.90;;;;;;4957434;28;20511;-76
2022/08/24 07:39:30;;;;;;;17.70;6.27;;;22.60;99.90;;;;;;4972027;28;20628;-76
2022/08/24 07:41:56;;;;;;;18.17;6.60;;;22.80;99.90;;;;;;4956775;28;20440;-76
2022/08/24 07:44:21;;;;;;;15.17;6.67;;;22.90;99.90;;;;;;4957036;28;20184;-77
2022/08/24 07:46:48;;;;;;;24.10;7.70;;;22.90;99.90;;;;;;4956675;28;20807;-76
2022/08/24 07:49:13;;;;;;;12.43;7.00;;;23.00;99.90;;;;;;4972054;28;20667;-76
2022/08/24 07:51:39;;;;;;;17.03;8.27;;;23.10;99.90;;;;;;4956690;28;20445;-77
2022/08/24 07:54:05;;;;;;;15.50;7.03;;;23.20;99.90;;;;;;4971923;28;20677;-78
2022/08/24 07:56:31;;;;;;;16.40;6.97;;;23.20;99.90;;;;;;4971687;28;20425;-79
2022/08/24 07:58:57;;;;;;;16.17;6.87;;;23.40;99.90;;;;;;4957000;29;20483;-79
2022/08/24 08:01:22;;;;;;;12.30;6.97;;;23.40;99.90;;;;;;4956170;28;20221;-81
2022/08/24 08:03:49;;;;;;;18.00;6.30;;;23.50;99.90;;;;;;4957062;28;20677;-79
2022/08/24 08:06:15;;;;;;;14.70;6.10;;;23.60;99.90;;;;;;4957243;29;20232;-80
2022/08/24 08:08:41;;;;;;;10.57;6.23;;;23.80;99.90;;;;;;4964950;29;20419;-79
2022/08/24 08:11:09;;;;;;;9.47;6.27;;;23.90;99.90;;;;;;4963983;29;20949;-80
2022/08/24 08:13:36;;;;;;;11.43;6.00;;;24.00;99.90;;;;;;4960259;29;20424;-80
2022/08/24 08:16:03;;;;;;;18.73;7.03;;;24.00;99.90;;;;;;4958422;29;20423;-81
2022/08/24 08:18:29;;;;;;;13.60;7.63;;;24.00;99.90;;;;;;4956417;29;20818;-79
2022/08/24 08:20:54;;;;;;;24.80;6.63;;;24.30;99.90;;;;;;4956164;29;20441;-81
2022/08/24 08:26:07;;;;;;;17.80;5.63;;;25.20;99.90;;;;;;4956809;29;20185;-81
2022/08/24 08:28:34;;;;;;;15.80;6.30;;;25.50;99.90;;;;;;4957224;29;20420;-81
2022/08/24 08:31:01;;;;;;;16.37;5.43;;;26.00;99.90;;;;;;4956277;29;20440;-81
2022/08/24 08:33:27;;;;;;;14.43;6.20;;;26.70;99.90;;;;;;4956362;29;20447;-79
2022/08/24 08:36:08;;;;;;;11.27;5.40;;;26.90;99.90;;;;;;4956375;29;20922;-79
2022/08/24 08:38:34;;;;;;;10.47;4.80;;;27.50;99.90;;;;;;4952889;29;20511;-80
2022/08/24 08:41:18;;;;;;;15.13;5.13;;;28.00;99.90;;;;;;4967098;29;20444;-78
2022/08/24 08:43:47;;;;;;;12.03;5.27;;;28.60;99.90;;;;;;4966657;29;20475;-76
2022/08/24 08:46:25;;;;;;;10.30;5.70;;;29.10;99.90;;;;;;4966146;29;20475;-78
2022/08/24 08:49:00;;;;;;;9.67;4.20;;;29.80;99.90;;;;;;4957347;29;20803;-78
2022/08/24 08:51:44;;;;;;;14.17;5.37;;;30.00;99.90;;;;;;4955782;29;20483;-77
2022/08/24 08:54:12;;;;;;;8.13;4.10;;;29.20;99.90;;;;;;4955922;29;20408;-78
2022/08/24 08:56:48;;;;;;;13.63;4.30;;;28.90;99.90;;;;;;4955911;29;20806;-76
2022/08/24 08:59:31;;;;;;;15.30;4.50;;;29.30;99.90;;;;;;4953850;28;20460;-78
2022/08/24 09:02:29;;;;;;;12.30;4.63;;;30.00;99.90;;;;;;4955586;29;20823;-77
2022/08/24 09:05:09;;;;;;;8.37;3.23;;;31.00;99.90;;;;;;4923826;28;20460;-77
2022/08/24 09:07:40;;;;;;;7.77;3.73;;;32.10;99.90;;;;;;4955709;29;20464;-78
2022/08/24 09:10:32;;;;;;;7.47;3.30;;;32.20;99.90;;;;;;4955469;29;20440;-78
2022/08/24 09:13:10;;;;;;;10.10;3.80;;;31.60;99.90;;;;;;4955638;29;20503;-77
2022/08/24 09:16:08;;;;;;;5.37;3.30;;;32.10;99.90;;;;;;4955695;29;20843;-77
2022/08/24 09:18:43;;;;;;;13.83;4.20;;;32.70;99.90;;;;;;4955558;29;20496;-78
2022/08/24 09:21:14;;;;;;;8.43;3.63;;;33.20;99.90;;;;;;4955326;29;20451;-78
2022/08/24 09:24:10;;;;;;;4.97;3.20;;;33.00;99.90;;;;;;4955624;29;20421;-77
2022/08/24 09:27:14;;;;;;;5.73;3.53;;;32.30;99.90;;;;;;4955603;29;20447;-77
2022/08/24 09:29:48;;;;;;;5.33;2.50;;;32.80;99.90;;;;;;4943457;29;20918;-77
2022/08/24 09:32:29;;;;;;;4.07;2.43;;;33.60;99.90;;;;;;4955193;29;20947;-76
2022/08/24 09:34:58;;;;;;;5.30;2.57;;;33.40;98.70;;;;;;4954345;29;20473;-77
2022/08/24 09:37:39;;;;;;;7.40;2.90;;;33.60;98.00;;;;;;4955221;29;20785;-77
2022/08/24 09:40:17;;;;;;;4.80;3.03;;;34.30;94.70;;;;;;4955058;29;20925;-75
2022/08/24 09:43:01;;;;;;;5.23;2.70;;;33.60;92.70;;;;;;4955090;29;20421;-75
2022/08/24 09:45:32;;;;;;;3.07;2.47;;;32.90;94.30;;;;;;4955020;29;20429;-75
2022/08/24 09:48:35;;;;;;;2.77;2.47;;;33.40;95.00;;;;;;4955101;29;20434;-74
2022/08/24 09:51:35;;;;;;;4.80;2.70;;;34.20;93.80;;;;;;4954688;29;20514;-75
2022/08/24 09:54:07;;;;;;;4.63;2.80;;;34.50;91.90;;;;;;4955102;29;20412;-75
2022/08/24 09:56:43;;;;;;;3.80;2.40;;;34.70;91.10;;;;;;4955213;29;20425;-76
2022/08/24 09:59:35;;;;;;;6.30;3.17;;;35.80;89.90;;;;;;4955072;29;20459;-76
2022/08/24 10:02:32;;;;;;;6.27;2.70;;;36.00;85.70;;;;;;4953580;29;20500;-76
2022/08/24 10:05:28;;;;;;;8.67;3.33;;;35.10;84.70;;;;;;4953717;29;20420;-77
2022/08/24 10:08:20;;;;;;;3.77;2.80;;;35.10;85.40;;;;;;4953920;29;20420;-74
2022/08/24 10:10:46;;;;;;;3.97;2.83;;;35.70;84.20;;;;;;4956407;28;20532;-74
2022/08/24 10:13:17;;;;;;;3.60;2.67;;;35.50;83.70;;;;;;4958781;29;20512;-76
2022/08/24 10:16:01;;;;;;;7.63;2.87;;;35.00;79.70;;;;;;4958811;29;20272;-75
2022/08/24 10:18:39;;;;;;;6.17;3.30;;;35.00;80.40;;;;;;4958778;29;20831;-75
2022/08/24 10:21:16;;;;;;;6.20;3.00;;;34.90;83.90;;;;;;4958401;29;20547;-75
2022/08/24 10:24:00;;;;;;;6.57;3.17;;;35.40;80.30;;;;;;4958732;29;20416;-75
2022/08/24 10:27:00;;;;;;;4.93;3.50;;;35.90;78.20;;;;;;4958670;29;20412;-76
2022/08/24 10:29:35;;;;;;;8.83;3.03;;;36.20;73.70;;;;;;4958572;29;20482;-75
2022/08/24 10:32:21;;;;;;;4.93;2.90;;;36.10;74.00;;;;;;4957086;29;20451;-75
2022/08/24 10:35:13;;;;;;;7.87;3.00;;;35.90;70.70;;;;;;4958864;29;20416;-74
2022/08/24 10:39:39;;;;;;;7.47;3.50;;;34.70;74.40;;;;;;4958309;29;20468;-74
2022/08/24 10:40:54;;;;;;;10.67;2.57;;;33.70;75.00;;;;;;4958104;29;20792;-75
2022/08/24 10:43:50;;;;;;;4.23;3.37;;;34.00;78.70;;;;;;4958666;29;20506;-77
2022/08/24 10:46:40;;;;;;;7.43;3.00;;;34.10;76.30;;;;;;4957210;29;20444;-75
2022/08/24 10:49:31;;;;;;;6.30;2.60;;;34.80;74.40;;;;;;4958275;29;20424;-73
2022/08/24 10:52:15;;;;;;;5.93;3.07;;;35.30;72.10;;;;;;4957730;28;20967;-75
2022/08/24 10:54:41;;;;;;;8.00;2.57;;;34.90;69.80;;;;;;4958216;29;20427;-75
2022/08/24 10:57:10;;;;;;;4.67;2.80;;;34.40;69.40;;;;;;4958221;29;20424;-75
2022/08/24 10:59:42;;;;;;;5.03;2.20;;;34.80;71.30;;;;;;4956569;29;20460;-76
2022/08/24 11:02:09;;;;;;;7.37;2.40;;;35.10;68.30;;;;;;4958094;29;20583;-75
2022/08/24 11:04:37;;;;;;;6.47;2.57;;;35.00;67.90;;;;;;4957957;28;20420;-75
2022/08/24 11:07:16;;;;;;;3.33;2.60;;;35.40;67.30;;;;;;4957704;29;20523;-74
2022/08/24 11:10:00;;;;;;;4.50;2.67;;;35.90;67.10;;;;;;4956988;29;20420;-75
2022/08/24 11:12:30;;;;;;;4.30;2.60;;;35.60;64.90;;;;;;4952434;29;20431;-75
2022/08/24 11:15:08;;;;;;;4.93;2.30;;;36.10;66.30;;;;;;4945064;29;20420;-75
2022/08/24 11:17:34;;;;;;;3.10;2.37;;;36.80;64.70;;;;;;4938589;29;20442;-75
2022/08/24 11:20:01;;;;;;;4.23;3.03;;;36.80;62.20;;;;;;4936953;29;20802;-75
2022/08/24 11:22:39;;;;;;;5.73;2.60;;;36.80;59.00;;;;;;4938080;29;20166;-75
2022/08/24 11:25:25;;;;;;;5.00;2.37;;;37.10;59.90;;;;;;4938734;29;20409;-75
2022/08/24 11:27:56;;;;;;;4.20;2.37;;;36.70;58.20;;;;;;4938407;29;20414;-74
2022/08/24 11:30:24;;;;;;;3.57;1.93;;;36.50;59.30;;;;;;4938216;29;20440;-75
2022/08/24 11:33:02;;;;;;;4.80;2.60;;;35.20;60.20;;;;;;4938527;29;20417;-75
2022/08/24 11:35:38;;;;;;;3.17;2.40;;;34.40;61.80;;;;;;4938412;29;20405;-75
2022/08/24 11:38:26;;;;;;;3.20;2.43;;;34.40;61.70;;;;;;4936915;29;21274;-74
2022/08/24 11:40:54;;;;;;;3.63;2.60;;;34.90;62.20;;;;;;4937880;29;20433;-76
2022/08/24 11:43:30;;;;;;;5.73;2.43;;;36.00;61.10;;;;;;4952699;29;20411;-75
2022/08/24 11:45:59;;;;;;;4.27;2.30;;;36.30;59.80;;;;;;4954710;29;20765;-75
2022/08/24 11:48:58;;;;;;;4.77;2.10;;;36.50;58.70;;;;;;4955925;29;20435;-75
2022/08/24 11:51:43;;;;;;;5.00;1.90;;;36.60;58.70;;;;;;4956659;28;20951;-75
2022/08/24 11:54:47;;;;;;;4.07;2.20;;;37.10;59.20;;;;;;4956458;28;20427;-76
2022/08/24 11:57:29;;;;;;;4.00;1.93;;;37.60;56.50;;;;;;4955190;28;20483;-75
2022/08/24 12:00:09;;;;;;;2.57;1.53;;;37.60;55.20;;;;;;4960218;28;20856;-75
2022/08/24 12:02:50;;;;;;;2.50;2.10;;;37.90;54.70;;;;;;4957225;29;20413;-75
2022/08/24 12:05:41;;;;;;;4.23;2.00;;;38.00;54.80;;;;;;4956833;29;20416;-75
2022/08/24 12:08:20;;;;;;;5.10;1.90;;;37.70;54.50;;;;;;4958539;28;20499;-74
2022/08/24 12:11:08;;;;;;;3.77;2.07;;;37.20;54.40;;;;;;4958484;28;20472;-74
2022/08/24 12:14:03;;;;;;;4.47;1.83;;;37.60;55.20;;;;;;4959174;29;20799;-73
2022/08/24 12:16:34;;;;;;;6.47;2.43;;;37.70;54.60;;;;;;4961535;28;20416;-74
2022/08/24 12:19:13;;;;;;;6.20;1.90;;;38.20;53.60;;;;;;4960394;29;20459;-74
2022/08/24 12:21:44;;;;;;;5.63;2.30;;;38.30;53.40;;;;;;4962482;28;20435;-72
2022/08/24 12:24:25;;;;;;;3.03;2.23;;;38.00;53.50;;;;;;4957610;29;20445;-73
2022/08/24 12:26:56;;;;;;;5.53;2.53;;;38.50;52.40;;;;;;4958162;29;20397;-74
2022/08/24 12:29:29;;;;;;;3.43;2.10;;;38.70;51.90;;;;;;4956395;28;20492;-73
2022/08/24 12:32:17;;;;;;;7.57;2.30;;;38.70;51.90;;;;;;4955836;28;20438;-77
2022/08/24 12:34:56;;;;;;;10.63;2.03;;;39.40;52.10;;;;;;4954487;28;20441;-74
2022/08/24 12:37:28;;;;;;;2.43;1.90;;;39.70;49.80;;;;;;4969834;28;20421;-77
2022/08/24 12:40:21;;;;;;;3.70;2.30;;;39.70;49.60;;;;;;4959645;28;20431;-75
2022/08/24 12:43:07;;;;;;;3.27;2.03;;;38.90;49.00;;;;;;4954463;29;20810;-75
2022/08/24 12:45:35;;;;;;;6.53;2.70;;;39.00;50.00;;;;;;4959788;29;20420;-73
2022/08/24 12:48:23;;;;;;;3.93;2.10;;;39.50;49.40;;;;;;4959275;28;20421;-74
2022/08/24 12:50:51;;;;;;;2.50;2.00;;;40.20;48.80;;;;;;4958941;28;20798;-75
2022/08/24 12:53:26;;;;;;;5.80;2.27;;;40.60;47.10;;;;;;4959343;29;20415;-75
2022/08/24 12:56:22;;;;;;;2.60;1.57;;;40.40;46.80;;;;;;4959509;29;20995;-74
2022/08/24 12:59:12;;;;;;;3.10;1.90;;;39.80;47.30;;;;;;4958072;29;20452;-75
2022/08/24 13:01:44;;;;;;;3.67;2.63;;;39.70;48.10;;;;;;4957079;29;20464;-75
2022/08/24 13:04:16;;;;;;;3.27;2.57;;;40.20;47.00;;;;;;4958334;29;20479;-75
2022/08/24 13:06:58;;;;;;;3.37;2.00;;;39.80;47.10;;;;;;4958613;29;20496;-75
2022/08/24 13:09:33;;;;;;;3.60;2.00;;;40.10;47.70;;;;;;4955229;29;20949;-76
2022/08/24 13:12:30;;;;;;;4.40;2.07;;;40.30;47.00;;;;;;4941526;29;20440;-76
2022/08/24 13:15:27;;;;;;;4.47;2.13;;;39.50;45.60;;;;;;4940443;29;20431;-75
2022/08/24 13:18:08;;;;;;;3.93;2.30;;;40.00;45.90;;;;;;4942203;29;20467;-77